Time;durP1;ratioP1;P1;durP2;ratioP2;P2;SDS_P1;SDS_P2;PMS_P1;PMS_P2;Temp;Humidity;BMP_temperature;BMP_pressure;BME280_temperature;BME280_humidity;BME280_pressure;Samples;Min_cycle;Max_cycle;Signal;HPM_P1;HPM_P2
2024/03/13 00:00:13;;;;;;;1.10;1.10;;;6.70;99.90;;;;;;493968;241;28055;-73
2024/03/13 00:02:12;;;;;;;1.10;1.10;;;6.70;99.90;;;;;;493830;241;28617;-71
2024/03/13 00:04:14;;;;;;;1.10;1.10;;;6.70;99.90;;;;;;493982;241;27955;-71
2024/03/13 00:06:15;;;;;;;1.00;1.00;;;6.70;99.90;;;;;;493992;241;28133;-74
2024/03/13 00:08:16;;;;;;;1.30;1.20;;;6.80;99.90;;;;;;493931;241;28188;-73
2024/03/13 00:10:18;;;;;;;1.40;1.30;;;6.80;99.90;;;;;;493968;237;27769;-73
2024/03/13 00:12:19;;;;;;;1.53;1.43;;;6.80;99.90;;;;;;494021;241;27609;-73
2024/03/13 00:14:20;;;;;;;1.37;1.27;;;6.80;99.90;;;;;;494034;241;27589;-73
2024/03/13 00:16:21;;;;;;;1.50;1.40;;;6.80;99.90;;;;;;494009;241;27830;-74
2024/03/13 00:18:22;;;;;;;1.40;1.30;;;6.80;99.90;;;;;;493925;241;28002;-72
2024/03/13 00:20:24;;;;;;;2.30;2.00;;;6.80;99.90;;;;;;493959;241;29296;-73
2024/03/13 00:22:25;;;;;;;1.37;1.37;;;6.80;99.90;;;;;;494031;241;28483;-73
2024/03/13 00:24:26;;;;;;;1.40;1.40;;;6.80;99.90;;;;;;494001;241;27481;-71
2024/03/13 00:26:27;;;;;;;1.40;1.30;;;6.80;99.90;;;;;;494004;241;27770;-72
2024/03/13 00:28:29;;;;;;;1.40;1.30;;;6.80;99.90;;;;;;493894;241;28502;-71
2024/03/13 00:30:30;;;;;;;1.40;1.30;;;6.90;99.90;;;;;;494000;241;28058;-74
2024/03/13 00:32:31;;;;;;;1.20;1.20;;;6.90;99.90;;;;;;493992;241;27944;-75
2024/03/13 00:34:32;;;;;;;1.57;1.47;;;6.90;99.90;;;;;;493980;241;28014;-73
2024/03/13 00:36:34;;;;;;;1.00;1.00;;;6.90;99.90;;;;;;493965;241;28034;-73
2024/03/13 00:38:35;;;;;;;1.23;1.20;;;6.90;99.90;;;;;;493923;241;28006;-73
2024/03/13 00:40:37;;;;;;;2.30;1.70;;;7.00;99.90;;;;;;494013;241;27852;-74
2024/03/13 00:42:37;;;;;;;1.80;1.70;;;7.00;99.90;;;;;;493987;241;27990;-71
2024/03/13 00:44:39;;;;;;;1.33;1.23;;;7.00;99.90;;;;;;493966;241;27956;-73
2024/03/13 00:46:40;;;;;;;1.40;1.30;;;7.00;99.90;;;;;;493935;241;27642;-74
2024/03/13 00:48:41;;;;;;;1.40;1.30;;;7.00;99.90;;;;;;493935;241;27942;-73
2024/03/13 00:50:46;;;;;;;1.35;1.33;;;7.00;99.90;;;;;;493979;241;27966;-73
2024/03/13 00:52:47;;;;;;;1.73;1.30;;;7.00;99.90;;;;;;493783;241;27538;-75
2024/03/13 00:54:47;;;;;;;0.90;0.90;;;7.00;99.90;;;;;;493890;241;27868;-73
2024/03/13 00:56:48;;;;;;;1.30;1.30;;;7.00;99.90;;;;;;493988;241;28504;-74
2024/03/13 00:58:50;;;;;;;1.20;1.20;;;7.00;99.90;;;;;;493966;241;28555;-74
2024/03/13 01:00:52;;;;;;;1.17;1.17;;;7.00;99.90;;;;;;493883;241;28312;-73
2024/03/13 01:02:53;;;;;;;1.17;1.00;;;7.00;99.90;;;;;;493823;241;28439;-73
2024/03/13 01:04:54;;;;;;;1.53;1.43;;;7.00;99.90;;;;;;493970;241;28602;-73
2024/03/13 01:06:55;;;;;;;1.30;1.20;;;7.00;99.90;;;;;;493946;241;28045;-73
2024/03/13 01:08:56;;;;;;;1.30;1.30;;;7.00;99.90;;;;;;493899;239;27776;-74
2024/03/13 01:10:59;;;;;;;1.63;1.53;;;7.00;99.90;;;;;;493952;241;27986;-73
2024/03/13 01:12:59;;;;;;;1.00;1.00;;;7.10;99.90;;;;;;493794;241;27902;-74
2024/03/13 01:15:00;;;;;;;1.10;1.10;;;7.10;99.90;;;;;;494000;241;27998;-74
2024/03/13 01:17:02;;;;;;;1.27;1.17;;;7.10;99.90;;;;;;493991;241;27921;-73
2024/03/13 01:19:02;;;;;;;1.00;1.00;;;7.10;99.90;;;;;;493843;238;28003;-73
2024/03/13 01:21:03;;;;;;;1.00;1.00;;;7.10;99.90;;;;;;493947;241;27996;-73
2024/03/13 01:23:05;;;;;;;1.30;1.20;;;7.10;99.90;;;;;;494004;241;27996;-73
2024/03/13 01:25:06;;;;;;;1.47;1.37;;;7.20;99.90;;;;;;493987;241;28919;-74
2024/03/13 01:27:07;;;;;;;1.20;1.10;;;7.10;99.90;;;;;;493954;241;28058;-74
2024/03/13 01:29:08;;;;;;;2.13;1.70;;;7.10;99.90;;;;;;493927;237;27888;-73
2024/03/13 01:31:10;;;;;;;1.37;1.27;;;7.20;99.90;;;;;;493968;237;27944;-72
2024/03/13 01:33:12;;;;;;;1.30;1.30;;;7.20;99.90;;;;;;493997;241;27950;-73
2024/03/13 01:35:12;;;;;;;1.40;1.30;;;7.20;99.90;;;;;;493873;241;28608;-74
2024/03/13 01:39:33;;;;;;;1.30;1.30;;;7.20;99.90;;;;;;493780;241;27852;-72
2024/03/13 01:55:30;;;;;;;1.30;1.20;;;7.20;99.90;;;;;;484547;245;27850;-73
2024/03/13 01:57:32;;;;;;;1.40;1.30;;;7.20;99.90;;;;;;487770;241;28039;-72
2024/03/13 02:03:52;;;;;;;1.40;1.30;;;7.30;99.90;;;;;;493932;241;28005;-73
2024/03/13 02:05:53;;;;;;;1.80;1.57;;;7.30;99.90;;;;;;493966;237;27951;-73
2024/03/13 02:07:55;;;;;;;1.63;1.53;;;7.20;99.90;;;;;;493915;241;27925;-74
2024/03/13 02:09:56;;;;;;;1.23;1.20;;;7.20;99.90;;;;;;493919;237;27944;-73
2024/03/13 02:11:57;;;;;;;1.00;1.00;;;7.20;99.90;;;;;;493919;241;27880;-74
2024/03/13 02:14:04;;;;;;;1.20;1.20;;;7.30;99.90;;;;;;493964;241;27986;-72
2024/03/13 02:16:00;;;;;;;1.50;1.40;;;7.20;99.90;;;;;;493479;241;28012;-73
2024/03/13 02:18:01;;;;;;;1.10;1.10;;;7.20;99.90;;;;;;493933;241;27612;-73
2024/03/13 02:20:03;;;;;;;1.20;1.20;;;7.20;99.90;;;;;;493962;241;27840;-73
2024/03/13 02:22:04;;;;;;;1.17;1.17;;;7.30;99.90;;;;;;493918;241;27858;-73
2024/03/13 02:24:05;;;;;;;1.60;1.20;;;7.20;99.90;;;;;;493978;241;28762;-75
2024/03/13 02:26:06;;;;;;;1.10;1.10;;;7.20;99.90;;;;;;493916;241;28050;-72
2024/03/13 02:28:07;;;;;;;1.70;1.20;;;7.20;99.90;;;;;;493906;241;27920;-73
2024/03/13 02:30:10;;;;;;;1.50;1.07;;;7.30;99.90;;;;;;493933;241;27849;-72
2024/03/13 02:32:11;;;;;;;2.70;1.23;;;7.30;99.90;;;;;;493840;241;27669;-73
2024/03/13 02:34:11;;;;;;;1.67;1.57;;;7.30;99.90;;;;;;493926;241;28108;-74
2024/03/13 02:36:12;;;;;;;1.10;1.10;;;7.30;99.90;;;;;;493958;241;27901;-73
2024/03/13 02:38:13;;;;;;;2.53;1.07;;;7.30;99.90;;;;;;493899;241;28025;-73
2024/03/13 02:40:16;;;;;;;1.07;1.07;;;7.30;99.90;;;;;;493958;241;27991;-73
2024/03/13 02:42:16;;;;;;;1.27;1.17;;;7.30;99.90;;;;;;493848;241;28081;-73
2024/03/13 02:44:17;;;;;;;1.00;1.00;;;7.30;99.90;;;;;;493961;241;27966;-73
2024/03/13 02:46:18;;;;;;;1.03;1.00;;;7.30;99.90;;;;;;493935;241;27627;-73
2024/03/13 02:48:20;;;;;;;1.10;1.10;;;7.30;99.90;;;;;;493875;241;27977;-74
2024/03/13 02:50:21;;;;;;;1.00;1.00;;;7.30;99.90;;;;;;493927;241;28580;-74
2024/03/13 02:52:23;;;;;;;0.97;0.97;;;7.30;99.90;;;;;;493960;241;28480;-73
2024/03/13 02:54:23;;;;;;;0.90;0.90;;;7.30;99.90;;;;;;493782;241;28523;-74
2024/03/13 02:56:25;;;;;;;0.90;0.90;;;7.30;99.90;;;;;;493932;241;28401;-73
2024/03/13 02:58:26;;;;;;;1.20;1.10;;;7.30;99.90;;;;;;493835;241;28496;-73
2024/03/13 03:00:27;;;;;;;0.90;0.90;;;7.40;99.90;;;;;;493965;237;28116;-75
2024/03/13 03:02:28;;;;;;;1.07;1.07;;;7.40;99.90;;;;;;493910;237;27627;-73
2024/03/13 03:04:31;;;;;;;1.40;1.30;;;7.40;99.90;;;;;;493868;241;27990;-74
2024/03/13 03:06:31;;;;;;;1.10;1.10;;;7.40;99.90;;;;;;493792;237;28004;-73
2024/03/13 03:08:33;;;;;;;1.37;1.27;;;7.40;99.90;;;;;;493910;241;27940;-74
2024/03/13 03:10:33;;;;;;;3.20;1.60;;;7.40;99.90;;;;;;493910;241;27833;-74
2024/03/13 03:12:35;;;;;;;1.60;1.50;;;7.40;99.90;;;;;;493952;241;27963;-73
2024/03/13 03:14:36;;;;;;;1.80;1.70;;;7.40;99.90;;;;;;493937;241;28143;-74
2024/03/13 03:16:37;;;;;;;1.33;1.23;;;7.40;99.90;;;;;;493928;241;27927;-73
2024/03/13 03:18:38;;;;;;;1.43;1.33;;;7.40;99.90;;;;;;493932;241;28086;-73
2024/03/13 03:20:40;;;;;;;1.60;1.50;;;7.40;99.90;;;;;;493956;237;27908;-71
2024/03/13 03:22:41;;;;;;;2.17;1.40;;;7.40;99.90;;;;;;493967;241;28062;-73
2024/03/13 03:24:42;;;;;;;1.20;1.20;;;7.40;99.90;;;;;;493953;237;28106;-73
2024/03/13 03:26:43;;;;;;;1.33;1.23;;;7.40;99.90;;;;;;493983;241;27972;-74
2024/03/13 03:28:45;;;;;;;1.77;1.13;;;7.40;99.90;;;;;;493943;241;28451;-73
2024/03/13 03:30:48;;;;;;;1.20;1.20;;;7.40;99.90;;;;;;494004;241;28502;-74
2024/03/13 03:32:47;;;;;;;0.90;0.90;;;7.40;99.90;;;;;;493791;241;28238;-73
2024/03/13 03:34:48;;;;;;;0.87;0.87;;;7.40;99.90;;;;;;493984;237;28610;-74
2024/03/13 03:36:50;;;;;;;1.20;1.20;;;7.50;99.90;;;;;;494012;237;28508;-75
2024/03/13 03:38:51;;;;;;;1.13;0.90;;;7.40;99.90;;;;;;493974;241;28619;-73
2024/03/13 03:40:52;;;;;;;1.53;1.00;;;7.50;99.90;;;;;;493968;241;27880;-74
2024/03/13 03:42:53;;;;;;;0.80;0.80;;;7.50;99.90;;;;;;493969;241;27471;-72
2024/03/13 03:44:55;;;;;;;1.10;1.00;;;7.40;99.90;;;;;;493927;241;27800;-72
2024/03/13 03:46:56;;;;;;;0.93;0.90;;;7.40;99.90;;;;;;494003;241;27985;-74
2024/03/13 03:48:58;;;;;;;0.83;0.83;;;7.40;99.90;;;;;;493951;241;28005;-73
2024/03/13 03:50:58;;;;;;;0.80;0.80;;;7.40;99.90;;;;;;493944;241;28098;-74
2024/03/13 03:53:00;;;;;;;0.70;0.70;;;7.50;99.90;;;;;;493845;241;27966;-75
2024/03/13 03:55:02;;;;;;;0.80;0.80;;;7.50;99.90;;;;;;493995;241;27909;-73
2024/03/13 03:57:02;;;;;;;0.80;0.80;;;7.50;99.90;;;;;;493891;241;27828;-73
2024/03/13 03:59:03;;;;;;;0.77;0.77;;;7.50;99.90;;;;;;493934;241;28060;-73
2024/03/13 04:01:05;;;;;;;0.80;0.80;;;7.50;99.90;;;;;;493959;241;27676;-73
2024/03/13 04:03:06;;;;;;;0.70;0.70;;;7.50;99.90;;;;;;493940;241;27933;-73
2024/03/13 04:05:08;;;;;;;0.70;0.70;;;7.50;99.90;;;;;;493984;241;27936;-74
2024/03/13 04:07:08;;;;;;;0.73;0.73;;;7.50;99.90;;;;;;493928;241;28415;-73
2024/03/13 04:09:16;;;;;;;0.80;0.80;;;7.50;99.90;;;;;;493932;241;28258;-74
2024/03/13 04:11:17;;;;;;;0.60;0.60;;;7.50;99.90;;;;;;493970;241;27856;-71
2024/03/13 04:13:19;;;;;;;0.90;0.90;;;7.50;99.90;;;;;;493952;241;28073;-74
2024/03/13 04:15:23;;;;;;;2.50;1.00;;;7.50;99.90;;;;;;493930;241;28033;-73
2024/03/13 04:17:22;;;;;;;1.03;1.03;;;7.40;99.90;;;;;;493745;241;27755;-74
2024/03/13 04:19:22;;;;;;;0.80;0.80;;;7.40;99.90;;;;;;493860;241;28002;-73
2024/03/13 04:21:23;;;;;;;1.10;1.00;;;7.50;99.90;;;;;;493940;241;28004;-72
2024/03/13 04:23:24;;;;;;;0.90;0.90;;;7.50;99.90;;;;;;494000;241;28117;-73
2024/03/13 04:25:26;;;;;;;0.73;0.73;;;7.50;99.90;;;;;;493999;241;28563;-73
2024/03/13 04:27:27;;;;;;;0.87;0.87;;;7.50;99.90;;;;;;493937;241;28238;-73
2024/03/13 04:29:28;;;;;;;0.90;0.90;;;7.50;99.90;;;;;;493915;241;27938;-73
2024/03/13 04:31:29;;;;;;;0.90;0.90;;;7.50;99.90;;;;;;493978;241;28066;-73
2024/03/13 04:33:31;;;;;;;1.17;1.07;;;7.50;99.90;;;;;;493983;241;28016;-75
2024/03/13 04:35:32;;;;;;;0.87;0.87;;;7.50;99.90;;;;;;493975;237;27889;-73
2024/03/13 04:37:33;;;;;;;1.00;1.00;;;7.60;99.90;;;;;;493920;241;27976;-74
2024/03/13 04:39:34;;;;;;;1.00;1.00;;;7.60;99.90;;;;;;493925;241;27845;-73
2024/03/13 04:41:39;;;;;;;1.00;1.00;;;7.60;99.90;;;;;;493983;241;27963;-73
2024/03/13 04:43:37;;;;;;;0.90;0.90;;;7.60;99.90;;;;;;493618;241;27960;-74
2024/03/13 04:45:38;;;;;;;1.10;1.00;;;7.60;99.90;;;;;;493991;241;28025;-74
2024/03/13 04:47:39;;;;;;;0.80;0.80;;;7.60;99.90;;;;;;493919;241;28080;-74
2024/03/13 04:49:43;;;;;;;1.00;1.00;;;7.60;99.90;;;;;;494023;241;27615;-74
2024/03/13 04:51:42;;;;;;;1.30;1.20;;;7.60;99.90;;;;;;493858;241;27953;-74
2024/03/13 04:53:46;;;;;;;0.97;0.97;;;7.60;99.90;;;;;;493996;241;27518;-74
2024/03/13 04:55:48;;;;;;;0.90;0.90;;;7.60;99.90;;;;;;493975;241;27714;-74
2024/03/13 04:57:49;;;;;;;1.20;0.97;;;7.60;99.90;;;;;;493870;241;27707;-73
2024/03/13 04:59:50;;;;;;;0.80;0.80;;;7.60;99.90;;;;;;494043;241;27826;-73
2024/03/13 05:01:51;;;;;;;1.00;0.90;;;7.60;99.90;;;;;;494002;241;28014;-74
2024/03/13 05:03:52;;;;;;;1.13;1.10;;;7.60;99.90;;;;;;494015;241;27895;-73
2024/03/13 05:05:54;;;;;;;1.00;1.00;;;7.60;99.90;;;;;;493978;241;27797;-73
2024/03/13 05:07:56;;;;;;;1.40;1.30;;;7.60;99.90;;;;;;493991;241;28064;-75
2024/03/13 05:09:57;;;;;;;1.07;1.00;;;7.60;99.90;;;;;;493933;241;27932;-73
2024/03/13 05:11:57;;;;;;;1.20;1.10;;;7.60;99.90;;;;;;493956;241;27989;-74
2024/03/13 05:13:59;;;;;;;1.60;1.50;;;7.60;99.90;;;;;;493943;241;28292;-73
2024/03/13 05:16:00;;;;;;;1.40;1.30;;;7.60;99.90;;;;;;493968;241;28088;-73
2024/03/13 05:18:02;;;;;;;1.30;1.20;;;7.60;99.90;;;;;;493992;241;28690;-75
2024/03/13 05:20:06;;;;;;;1.50;1.40;;;7.60;99.90;;;;;;493970;241;28408;-73
2024/03/13 05:22:04;;;;;;;1.90;1.20;;;7.60;99.90;;;;;;493673;241;28542;-73
2024/03/13 05:24:06;;;;;;;1.40;1.30;;;7.60;99.90;;;;;;493949;237;28398;-73
2024/03/13 05:26:06;;;;;;;1.57;1.47;;;7.60;99.90;;;;;;493888;241;28078;-73
2024/03/13 05:28:07;;;;;;;2.37;2.00;;;7.60;99.90;;;;;;493962;241;27735;-74
2024/03/13 05:30:10;;;;;;;1.80;1.70;;;7.60;99.90;;;;;;493981;241;28064;-73
2024/03/13 05:32:10;;;;;;;2.70;2.17;;;7.60;99.90;;;;;;493910;241;27944;-73
2024/03/13 05:34:11;;;;;;;2.67;1.93;;;7.60;99.90;;;;;;493955;241;27962;-73
2024/03/13 05:36:12;;;;;;;1.93;1.73;;;7.60;99.90;;;;;;494015;241;27582;-74
2024/03/13 05:38:14;;;;;;;3.60;2.47;;;7.60;99.90;;;;;;493951;241;27953;-74
2024/03/13 05:40:19;;;;;;;3.10;2.53;;;7.70;99.90;;;;;;493995;241;27962;-73
2024/03/13 05:42:17;;;;;;;2.80;2.07;;;7.70;99.90;;;;;;493617;241;27847;-73
2024/03/13 05:44:17;;;;;;;4.67;2.97;;;7.70;99.90;;;;;;493936;241;28475;-74
2024/03/13 05:46:19;;;;;;;2.50;2.30;;;7.70;99.90;;;;;;494022;241;27814;-72
2024/03/13 05:48:20;;;;;;;3.17;2.33;;;7.70;99.90;;;;;;493960;241;27713;-74
2024/03/13 05:50:21;;;;;;;4.90;3.00;;;7.70;99.90;;;;;;493983;241;27943;-73
2024/03/13 05:52:22;;;;;;;6.60;4.07;;;7.70;99.90;;;;;;493970;241;28459;-73
2024/03/13 05:54:24;;;;;;;6.03;3.97;;;7.80;99.90;;;;;;493981;241;28418;-75
2024/03/13 05:56:26;;;;;;;6.37;4.00;;;7.80;99.90;;;;;;493964;241;28347;-73
2024/03/13 05:58:26;;;;;;;11.10;4.30;;;7.80;99.90;;;;;;493898;241;28535;-73
2024/03/13 06:00:27;;;;;;;4.67;3.53;;;7.80;99.90;;;;;;493931;241;27907;-73
2024/03/13 06:02:30;;;;;;;5.17;3.70;;;7.80;99.90;;;;;;493975;241;27900;-73
2024/03/13 06:04:30;;;;;;;3.60;3.00;;;7.80;99.90;;;;;;493843;241;28049;-74
2024/03/13 06:06:31;;;;;;;5.23;3.47;;;7.80;99.90;;;;;;493967;241;28142;-73
2024/03/13 06:08:33;;;;;;;4.00;3.10;;;7.80;99.90;;;;;;493885;241;28123;-74
2024/03/13 06:10:34;;;;;;;4.20;3.67;;;7.80;99.90;;;;;;493935;241;27698;-73
2024/03/13 06:12:35;;;;;;;4.53;3.57;;;7.80;99.90;;;;;;493971;241;27832;-73
2024/03/13 06:14:37;;;;;;;5.67;4.27;;;7.90;99.90;;;;;;493947;241;28086;-74
2024/03/13 06:16:37;;;;;;;4.17;3.27;;;7.90;99.90;;;;;;493906;241;27943;-74
2024/03/13 06:18:39;;;;;;;3.90;3.23;;;7.90;99.90;;;;;;493901;241;27983;-73
2024/03/13 06:20:40;;;;;;;3.90;2.93;;;7.90;99.90;;;;;;493986;241;27965;-75
2024/03/13 06:22:41;;;;;;;4.20;3.37;;;7.90;99.90;;;;;;493972;241;27959;-72
2024/03/13 06:24:46;;;;;;;4.20;3.27;;;7.90;99.90;;;;;;493957;241;27850;-73
2024/03/13 06:26:45;;;;;;;3.20;2.90;;;8.00;99.90;;;;;;493689;241;28012;-72
2024/03/13 06:31:06;;;;;;;5.20;4.40;;;8.00;99.90;;;;;;493966;241;29143;-73
2024/03/13 06:33:11;;;;;;;3.30;3.00;;;8.10;99.90;;;;;;493973;241;28175;-74
2024/03/13 06:35:08;;;;;;;4.27;3.40;;;8.10;99.90;;;;;;493660;241;28476;-74
2024/03/13 06:37:10;;;;;;;7.60;3.90;;;8.10;99.90;;;;;;493945;241;28080;-73
2024/03/13 06:39:11;;;;;;;4.37;3.23;;;8.10;99.90;;;;;;493868;241;28085;-73
2024/03/13 06:41:12;;;;;;;5.07;3.83;;;8.10;99.90;;;;;;493935;241;27816;-72
2024/03/13 06:43:14;;;;;;;4.03;3.10;;;8.20;99.90;;;;;;493977;241;27943;-73
2024/03/13 06:45:16;;;;;;;4.37;3.80;;;8.20;99.90;;;;;;493901;241;28027;-74
2024/03/13 06:47:16;;;;;;;3.77;3.37;;;8.20;99.90;;;;;;493890;241;28145;-73
2024/03/13 06:49:17;;;;;;;4.40;3.27;;;8.20;99.90;;;;;;493894;241;28030;-73
2024/03/13 06:51:18;;;;;;;3.37;3.07;;;8.30;99.90;;;;;;493971;241;28393;-74
2024/03/13 06:53:20;;;;;;;4.40;3.37;;;8.30;99.90;;;;;;493973;241;28193;-73
2024/03/13 06:55:21;;;;;;;2.83;2.60;;;8.30;99.90;;;;;;493941;237;28007;-74
2024/03/13 06:57:23;;;;;;;2.90;2.70;;;8.30;99.90;;;;;;493943;237;27830;-73
2024/03/13 06:59:23;;;;;;;4.30;3.30;;;8.30;99.90;;;;;;493858;237;27687;-73
2024/03/13 07:01:24;;;;;;;3.40;3.10;;;8.30;99.90;;;;;;493984;241;27994;-75
2024/03/13 07:03:28;;;;;;;2.50;2.30;;;8.40;99.90;;;;;;493982;241;27581;-73
2024/03/13 07:05:27;;;;;;;2.63;2.43;;;8.50;99.90;;;;;;493800;241;28192;-73
2024/03/13 07:07:30;;;;;;;2.90;2.53;;;8.50;99.90;;;;;;493825;241;28346;-73
2024/03/13 07:09:29;;;;;;;2.83;2.60;;;8.50;99.90;;;;;;493823;241;28525;-73
2024/03/13 07:11:31;;;;;;;2.60;2.40;;;8.50;99.90;;;;;;494004;241;28481;-75
2024/03/13 07:13:33;;;;;;;3.03;2.73;;;8.60;99.90;;;;;;494018;241;28557;-73
2024/03/13 07:15:34;;;;;;;6.37;3.73;;;8.70;99.90;;;;;;493999;241;28541;-73
2024/03/13 07:17:34;;;;;;;3.90;3.53;;;8.70;99.90;;;;;;493959;241;28102;-73
2024/03/13 07:19:37;;;;;;;3.00;2.77;;;8.80;99.90;;;;;;493971;241;27985;-73
2024/03/13 07:21:37;;;;;;;3.50;3.20;;;8.80;99.90;;;;;;493873;241;28097;-74
2024/03/13 07:23:38;;;;;;;4.07;3.13;;;8.90;99.90;;;;;;493949;241;28043;-73
2024/03/13 07:25:39;;;;;;;3.27;2.77;;;8.90;99.90;;;;;;493747;241;27924;-73
2024/03/13 07:27:41;;;;;;;2.73;2.53;;;9.00;99.90;;;;;;493961;241;28344;-73
2024/03/13 07:29:42;;;;;;;2.60;2.40;;;9.00;99.90;;;;;;493990;241;27836;-73
2024/03/13 07:31:43;;;;;;;4.30;2.80;;;9.00;99.90;;;;;;493970;241;28010;-74
2024/03/13 07:33:45;;;;;;;3.47;3.00;;;9.10;99.90;;;;;;493950;241;27899;-73
2024/03/13 07:35:46;;;;;;;2.17;2.03;;;9.10;99.90;;;;;;493946;241;27825;-73
2024/03/13 07:37:47;;;;;;;2.53;2.27;;;9.10;99.90;;;;;;493938;241;28087;-74
2024/03/13 07:39:48;;;;;;;2.57;2.37;;;9.20;99.90;;;;;;493823;237;27857;-74
2024/03/13 07:41:51;;;;;;;1.90;1.80;;;9.20;99.90;;;;;;493981;241;28408;-74
2024/03/13 07:43:51;;;;;;;1.80;1.70;;;9.20;99.90;;;;;;493820;241;28577;-73
2024/03/13 07:45:54;;;;;;;2.50;2.30;;;9.20;99.90;;;;;;493988;241;28333;-73
2024/03/13 07:47:53;;;;;;;1.80;1.70;;;9.20;99.90;;;;;;493842;241;28553;-76
2024/03/13 07:49:54;;;;;;;2.10;2.00;;;9.30;99.90;;;;;;493805;241;28419;-73
2024/03/13 07:52:01;;;;;;;1.80;1.70;;;9.30;99.90;;;;;;493796;237;28544;-73
2024/03/13 07:53:58;;;;;;;2.10;1.93;;;9.30;99.90;;;;;;493477;241;28055;-72
2024/03/13 07:55:58;;;;;;;2.00;1.87;;;9.40;99.90;;;;;;493969;241;27967;-73
2024/03/13 07:58:00;;;;;;;2.03;1.90;;;9.40;99.90;;;;;;493955;241;27996;-74
2024/03/13 08:00:01;;;;;;;1.60;1.50;;;9.40;99.90;;;;;;493936;241;28090;-73
2024/03/13 08:02:02;;;;;;;2.00;1.90;;;9.50;99.90;;;;;;493942;241;27853;-74
2024/03/13 08:04:03;;;;;;;1.73;1.63;;;9.50;99.90;;;;;;493984;241;27877;-73
2024/03/13 08:06:04;;;;;;;2.10;2.00;;;9.50;99.90;;;;;;493989;241;28144;-73
2024/03/13 08:08:06;;;;;;;1.93;1.83;;;9.60;99.90;;;;;;493920;241;28014;-74
2024/03/13 08:10:08;;;;;;;1.90;1.80;;;9.70;99.90;;;;;;493931;237;27680;-73
2024/03/13 08:12:09;;;;;;;1.90;1.80;;;9.80;99.90;;;;;;493840;241;27748;-73
2024/03/13 08:14:10;;;;;;;2.23;2.03;;;9.80;99.90;;;;;;493992;241;28370;-74
2024/03/13 08:16:11;;;;;;;2.00;1.90;;;9.90;99.90;;;;;;493965;241;28573;-72
2024/03/13 08:18:15;;;;;;;2.83;2.57;;;10.00;99.90;;;;;;493878;241;28591;-74
2024/03/13 08:20:14;;;;;;;6.13;3.00;;;10.00;99.90;;;;;;493676;237;28030;-73
2024/03/13 08:22:14;;;;;;;2.33;2.13;;;9.90;99.90;;;;;;493929;241;27836;-73
2024/03/13 08:24:18;;;;;;;3.23;2.63;;;9.90;99.90;;;;;;493931;241;28074;-74
2024/03/13 08:26:17;;;;;;;2.10;1.90;;;9.90;99.90;;;;;;493774;237;28008;-73
2024/03/13 08:28:18;;;;;;;2.70;2.50;;;9.90;99.90;;;;;;493884;241;28056;-75
2024/03/13 08:30:23;;;;;;;3.53;2.50;;;9.80;99.90;;;;;;493882;241;28002;-74
2024/03/13 08:32:21;;;;;;;2.80;2.53;;;9.80;99.90;;;;;;493726;241;27977;-74
2024/03/13 08:34:22;;;;;;;3.03;2.30;;;9.90;99.90;;;;;;493915;237;28006;-74
2024/03/13 08:36:23;;;;;;;2.60;2.40;;;9.90;99.90;;;;;;493807;241;27836;-74
2024/03/13 08:38:24;;;;;;;2.20;2.10;;;9.90;99.90;;;;;;493857;241;28020;-74
2024/03/13 08:40:28;;;;;;;2.40;2.20;;;9.90;99.90;;;;;;493985;241;27982;-76
2024/03/13 08:42:27;;;;;;;2.93;2.60;;;9.90;99.90;;;;;;493837;241;27701;-74
2024/03/13 08:44:29;;;;;;;4.53;2.70;;;9.90;99.90;;;;;;493965;241;28017;-74
2024/03/13 08:46:29;;;;;;;2.27;2.17;;;9.90;99.90;;;;;;493926;241;27941;-74
2024/03/13 08:48:31;;;;;;;2.87;2.60;;;9.90;99.90;;;;;;493894;241;28506;-74
2024/03/13 08:50:32;;;;;;;2.50;1.90;;;9.90;99.90;;;;;;494008;241;28458;-74
2024/03/13 08:52:36;;;;;;;2.63;2.30;;;9.90;99.90;;;;;;493960;241;28528;-72
2024/03/13 08:54:37;;;;;;;2.80;2.60;;;10.00;99.90;;;;;;494002;241;27828;-72
2024/03/13 08:56:38;;;;;;;2.70;2.50;;;10.00;99.90;;;;;;493964;241;27776;-75
2024/03/13 08:58:44;;;;;;;2.73;2.27;;;10.00;99.90;;;;;;493923;241;27714;-74
2024/03/13 09:00:43;;;;;;;2.47;2.27;;;10.00;99.90;;;;;;493613;241;28406;-74
2024/03/13 09:02:42;;;;;;;2.50;2.40;;;10.00;99.90;;;;;;493868;241;28579;-74
2024/03/13 09:04:45;;;;;;;3.07;2.77;;;10.00;99.90;;;;;;493969;241;28374;-73
2024/03/13 09:06:45;;;;;;;3.43;3.13;;;10.00;99.90;;;;;;493840;241;28500;-72
2024/03/13 09:08:46;;;;;;;5.10;2.60;;;10.00;99.90;;;;;;493903;241;27982;-73
2024/03/13 09:10:47;;;;;;;3.00;2.80;;;10.10;99.90;;;;;;494005;241;27706;-73
2024/03/13 09:12:50;;;;;;;3.07;2.77;;;10.20;99.90;;;;;;493997;237;28114;-74
2024/03/13 09:14:50;;;;;;;3.47;2.60;;;10.20;99.90;;;;;;493870;241;28018;-72
2024/03/13 09:16:51;;;;;;;3.53;3.20;;;10.30;99.90;;;;;;493968;241;27991;-73
2024/03/13 09:18:52;;;;;;;3.47;3.17;;;10.20;99.90;;;;;;493983;241;28147;-75
2024/03/13 09:20:53;;;;;;;3.90;3.10;;;10.20;99.90;;;;;;494000;241;27958;-74
2024/03/13 09:22:55;;;;;;;5.73;3.97;;;10.20;99.90;;;;;;494008;241;28065;-74
2024/03/13 09:24:56;;;;;;;5.53;4.00;;;10.10;99.90;;;;;;493973;237;28125;-73
2024/03/13 09:26:58;;;;;;;4.80;3.97;;;10.10;99.90;;;;;;494015;241;28354;-74
2024/03/13 09:29:00;;;;;;;4.77;3.00;;;10.00;99.90;;;;;;493939;241;28506;-74
2024/03/13 09:31:00;;;;;;;3.70;3.30;;;10.10;99.90;;;;;;493861;241;28593;-73
2024/03/13 09:33:08;;;;;;;3.23;2.93;;;10.10;99.90;;;;;;493841;241;28189;-74
2024/03/13 09:35:09;;;;;;;7.00;3.77;;;10.20;99.90;;;;;;493297;241;28140;-73
2024/03/13 09:37:07;;;;;;;4.13;3.73;;;10.30;99.90;;;;;;493666;241;28561;-73
2024/03/13 09:39:09;;;;;;;3.30;3.00;;;10.40;99.90;;;;;;493871;241;28412;-73
2024/03/13 09:41:09;;;;;;;4.23;2.80;;;10.40;99.90;;;;;;493933;241;28357;-74
2024/03/13 09:43:10;;;;;;;3.40;3.10;;;10.40;99.90;;;;;;493945;241;27901;-73
2024/03/13 09:45:12;;;;;;;4.13;3.00;;;10.40;99.90;;;;;;493969;241;28083;-74
2024/03/13 09:47:13;;;;;;;3.80;2.90;;;10.50;99.90;;;;;;493951;241;28004;-73
2024/03/13 09:49:14;;;;;;;4.63;3.33;;;10.50;99.90;;;;;;493985;241;27969;-72
2024/03/13 09:51:15;;;;;;;4.83;3.13;;;10.60;99.90;;;;;;493991;241;28284;-74
2024/03/13 09:53:16;;;;;;;6.70;3.07;;;10.60;99.90;;;;;;493860;241;27977;-73
2024/03/13 09:55:18;;;;;;;3.70;2.73;;;10.70;99.90;;;;;;493956;241;28217;-73
2024/03/13 09:57:19;;;;;;;4.23;3.10;;;10.80;99.90;;;;;;493981;241;28446;-74
2024/03/13 09:59:20;;;;;;;3.83;2.57;;;11.00;99.90;;;;;;493937;241;28402;-73
2024/03/13 10:01:21;;;;;;;3.93;2.40;;;10.90;99.90;;;;;;493941;241;28699;-74
2024/03/13 10:03:23;;;;;;;6.13;2.50;;;10.90;99.90;;;;;;493903;241;28561;-73
2024/03/13 10:05:24;;;;;;;6.70;2.90;;;10.90;99.90;;;;;;493874;241;28621;-72
2024/03/13 10:07:25;;;;;;;4.50;2.63;;;10.90;99.90;;;;;;494003;241;28202;-75
2024/03/13 10:09:28;;;;;;;4.33;2.70;;;10.80;99.90;;;;;;493927;241;28053;-73
2024/03/13 10:11:27;;;;;;;5.53;2.43;;;10.80;99.90;;;;;;493786;241;28259;-73
2024/03/13 10:13:29;;;;;;;4.57;2.00;;;10.80;99.90;;;;;;493929;241;28192;-72
2024/03/13 10:15:30;;;;;;;2.73;2.27;;;10.80;99.90;;;;;;493980;241;28278;-73
2024/03/13 10:17:34;;;;;;;3.87;1.90;;;10.90;99.90;;;;;;493939;241;28197;-74
2024/03/13 10:19:32;;;;;;;3.63;2.13;;;11.00;99.90;;;;;;493684;241;28343;-74
2024/03/13 10:21:34;;;;;;;1.73;1.63;;;11.20;99.90;;;;;;493901;241;28250;-74
2024/03/13 10:23:35;;;;;;;2.70;2.10;;;11.20;99.90;;;;;;493798;241;28321;-74
2024/03/13 10:25:36;;;;;;;3.03;1.83;;;11.10;99.90;;;;;;493983;241;28939;-73
2024/03/13 10:27:38;;;;;;;2.37;1.73;;;11.00;99.90;;;;;;493964;241;28573;-73
2024/03/13 10:29:40;;;;;;;1.60;1.50;;;10.90;99.90;;;;;;493755;241;28134;-73
2024/03/13 10:31:40;;;;;;;3.40;1.90;;;10.90;99.90;;;;;;493849;241;28099;-73
2024/03/13 10:33:41;;;;;;;2.20;1.77;;;11.00;99.90;;;;;;493940;241;28253;-74
2024/03/13 10:35:43;;;;;;;3.30;2.27;;;10.90;99.90;;;;;;493974;241;28278;-73
2024/03/13 10:37:44;;;;;;;3.30;2.30;;;10.80;99.90;;;;;;493910;241;28119;-74
2024/03/13 10:39:45;;;;;;;2.80;2.00;;;10.80;99.90;;;;;;493962;241;28043;-73
2024/03/13 10:41:48;;;;;;;2.70;2.10;;;10.80;99.90;;;;;;493997;241;28036;-72
2024/03/13 10:43:48;;;;;;;2.93;2.23;;;10.80;99.90;;;;;;493837;241;28005;-74
2024/03/13 10:45:49;;;;;;;3.20;1.77;;;10.70;99.90;;;;;;493964;241;28680;-72
2024/03/13 10:47:50;;;;;;;2.10;2.00;;;10.70;99.90;;;;;;493914;241;28527;-74
2024/03/13 10:49:51;;;;;;;2.70;2.07;;;10.70;99.90;;;;;;493955;237;28672;-73
2024/03/13 10:51:53;;;;;;;2.00;1.90;;;10.80;99.90;;;;;;493992;241;27926;-74
2024/03/13 10:53:54;;;;;;;2.10;1.90;;;10.90;99.90;;;;;;493854;241;28331;-73
2024/03/13 10:55:55;;;;;;;4.63;1.83;;;11.10;99.90;;;;;;493941;241;28277;-72
2024/03/13 10:57:56;;;;;;;4.07;2.10;;;11.30;99.90;;;;;;493858;241;28309;-74
2024/03/13 10:59:58;;;;;;;1.70;1.60;;;11.30;99.90;;;;;;493994;241;28464;-76